.
WxDataArchive / Data Records for 2010-11-15
2010-11-14 November 2010 2010-11-16

Data Records for Monday, 15 November 2010

Time	Temp	Chill	HIndex	Humid	Dewpt	 Wind 	HiWind	WindDir	Rain 	Barom 
-----	----	-----	------	-----	-----	------	------	-------	-----	----- 
00:00	39.1	39.1	39.1	62	27.2	1	3	248	0.00	29.972 
00:05	38.9	38.9	38.9	62	27.0	2	5	225	0.00	29.972 
00:10	38.8	38.8	38.8	62	26.9	1	4	225	0.00	29.972 
00:15	38.6	38.6	38.6	63	27.1	1	4	248	0.00	29.972 
00:20	38.3	38.3	38.3	64	27.2	0	3	248	0.00	29.972 
00:25	38.2	38.2	38.2	64	27.1	1	3	248	0.00	29.972 
00:30	38.0	38.0	38.0	64	26.9	0	3	248	0.00	29.973 
00:35	37.9	37.9	37.9	65	27.2	1	4	248	0.00	29.973 
00:40	37.8	37.8	37.8	65	27.1	0	1	248	0.00	29.973 
00:45	37.6	37.6	37.6	65	26.9	0	1	248	0.00	29.968 
00:50	37.3	37.3	37.3	66	27.0	0	4	248	0.00	29.968 
00:55	37.2	37.2	37.2	66	26.9	0	3	248	0.00	29.968 
01:00	37.2	37.2	37.2	67	27.3	1	4	248	0.00	29.969 
01:05	37.0	37.0	37.0	67	27.1	0	2	248	0.00	29.969 
01:10	37.0	37.0	37.0	67	27.1	0	2	248	0.00	29.969 
01:15	36.9	36.9	36.9	68	27.3	1	3	248	0.00	29.966 
01:20	36.9	36.9	36.9	68	27.3	1	4	248	0.00	29.966 
01:25	36.9	36.9	36.9	68	27.3	1	3	248	0.00	29.966 
01:30	36.9	36.9	36.9	68	27.3	0	2	270	0.00	29.962 
01:35	36.8	36.8	36.8	68	27.2	0	4	270	0.00	29.962 
01:40	36.6	36.6	36.6	69	27.4	0	3	225	0.00	29.962 
01:45	36.5	36.5	36.5	69	27.3	0	2	225	0.00	29.962 
01:50	36.3	36.3	36.3	69	27.1	0	2	225	0.00	29.962 
01:55	36.2	36.2	36.2	70	27.4	0	2	225	0.00	29.962 
02:00	36.0	36.0	36.0	70	27.2	0	1	225	0.00	29.962 
02:05	36.0	36.0	36.0	70	27.2	0	2	225	0.00	29.962 
02:10	35.9	35.9	35.9	71	27.4	0	2	225	0.00	29.962 
02:15	35.6	35.6	35.6	71	27.1	0	1	225	0.00	29.961 
02:20	35.5	35.5	35.5	72	27.4	0	2	225	0.00	29.961 
02:25	35.3	35.3	35.3	72	27.2	0	1	225	0.00	29.961 
02:30	35.2	35.2	35.2	73	27.4	0	1	225	0.00	29.961 
02:35	35.0	35.0	35.0	73	27.2	0	1	225	0.00	29.961 
02:40	34.9	34.9	34.9	73	27.1	0	3	225	0.00	29.961 
02:45	34.7	34.7	34.7	74	27.3	0	1	225	0.00	29.961 
02:50	34.7	34.7	34.7	74	27.3	0	2	225	0.00	29.961 
02:55	34.7	34.7	34.7	74	27.3	0	3	225	0.00	29.961 
03:00	34.6	34.6	34.6	75	27.5	0	1	225	0.00	29.959 
03:05	34.7	34.7	34.7	75	27.6	0	3	225	0.00	29.959 
03:10	34.9	34.9	34.9	75	27.8	0	2	225	0.00	29.959 
03:15	34.9	34.9	34.9	74	27.5	0	2	225	0.00	29.953 
03:20	35.0	35.0	35.0	74	27.6	0	3	225	0.00	29.953 
03:25	35.3	35.3	35.3	74	27.9	0	3	225	0.00	29.953 
03:30	35.5	35.5	35.5	73	27.7	0	1	225	0.00	29.948 
03:35	35.6	35.6	35.6	73	27.8	0	4	248	0.00	29.948 
03:40	35.8	35.8	35.8	73	28.0	0	3	248	0.00	29.948 
03:45	35.9	35.9	35.9	73	28.1	1	3	68	0.00	29.946 
03:50	35.9	35.9	35.9	73	28.1	0	2	90	0.00	29.946 
03:55	35.8	35.8	35.8	72	27.7	0	3	90	0.00	29.946 
04:00	35.8	35.8	35.8	72	27.7	0	4	248	0.00	29.943 
04:05	35.8	35.8	35.8	73	28.0	0	2	248	0.00	29.943 
04:10	35.6	35.6	35.6	73	27.8	0	2	248	0.00	29.943 
04:15	35.5	35.5	35.5	73	27.7	0	3	248	0.00	29.945 
04:20	35.5	35.5	35.5	73	27.7	0	1	248	0.00	29.945 
04:25	35.5	35.5	35.5	73	27.7	0	2	248	0.00	29.945 
04:30	35.5	35.5	35.5	73	27.7	0	2	248	0.00	29.942 
04:35	35.5	35.5	35.5	73	27.7	0	3	248	0.00	29.942 
04:40	35.5	35.5	35.5	73	27.7	0	2	248	0.00	29.942 
04:45	35.6	35.6	35.6	73	27.8	0	3	248	0.00	29.944 
04:50	35.6	35.6	35.6	73	27.8	0	2	248	0.00	29.944 
04:55	35.8	35.8	35.8	73	28.0	0	1	248	0.00	29.944 
05:00	35.9	35.9	35.9	73	28.1	0	2	248	0.00	29.946 
05:05	36.0	36.0	36.0	72	27.9	0	0	---	0.00	29.946 
05:10	36.0	36.0	36.0	72	27.9	0	0	---	0.00	29.946 
05:15	36.0	36.0	36.0	73	28.2	0	2	248	0.00	29.948 
05:20	36.0	36.0	36.0	73	28.2	0	2	248	0.00	29.948 
05:25	36.3	36.3	36.3	73	28.5	0	2	248	0.00	29.948 
05:30	36.5	36.5	36.5	72	28.3	0	2	248	0.00	29.950 
05:35	36.8	36.8	36.8	72	28.6	0	1	248	0.00	29.950 
05:40	36.9	36.9	36.9	71	28.4	0	3	248	0.00	29.950 
05:45	37.0	37.0	37.0	71	28.5	0	2	248	0.00	29.954 
05:50	37.2	37.2	37.2	70	28.3	0	2	248	0.00	29.954 
05:55	37.3	37.3	37.3	70	28.4	0	2	248	0.00	29.954 
06:00	37.5	37.5	37.5	69	28.3	0	1	248	0.00	29.951 
06:05	37.6	37.6	37.6	69	28.4	1	2	248	0.00	29.951 
06:10	37.8	37.8	37.8	69	28.6	1	4	248	0.00	29.951 
06:15	37.8	37.8	37.8	69	28.6	0	1	248	0.00	29.962 
06:20	37.9	37.9	37.9	69	28.7	1	3	248	0.00	29.962 
06:25	37.9	37.9	37.9	69	28.7	0	2	248	0.00	29.962 
06:30	37.9	37.9	37.9	68	28.3	0	2	248	0.00	29.960 
06:35	38.0	38.0	38.0	68	28.4	1	3	248	0.00	29.960 
06:40	38.0	38.0	38.0	68	28.4	1	3	225	0.00	29.960 
06:45	38.0	38.0	38.0	68	28.4	1	3	225	0.00	29.961 
06:50	38.0	38.0	38.0	68	28.4	0	2	225	0.00	29.961 
06:55	37.9	37.9	37.9	68	28.3	0	2	225	0.00	29.961 
07:00	37.9	37.9	37.9	69	28.7	0	1	225	0.00	29.960 
07:05	37.8	37.8	37.8	69	28.6	0	3	225	0.00	29.960 
07:10	37.6	37.6	37.6	69	28.4	0	1	225	0.00	29.960 
07:15	37.5	37.5	37.5	69	28.3	0	1	225	0.00	29.958 
07:20	37.3	37.3	37.3	69	28.1	0	1	225	0.00	29.958 
07:25	37.2	37.2	37.2	70	28.3	0	0	---	0.00	29.958 
07:30	37.0	37.0	37.0	70	28.1	0	1	225	0.00	29.954 
07:35	36.9	36.9	36.9	71	28.4	0	1	225	0.00	29.954 
07:40	36.8	36.8	36.8	72	28.6	0	0	---	0.00	29.954 
07:45	36.8	36.8	36.8	73	29.0	0	1	225	0.00	29.958 
07:50	36.8	36.8	36.8	73	29.0	0	0	---	0.00	29.958 
07:55	36.9	36.9	36.9	73	29.1	0	2	225	0.00	29.958 
08:00	37.0	37.0	37.0	72	28.8	0	2	225	0.00	29.964 
08:05	37.2	37.2	37.2	72	29.0	0	1	225	0.00	29.964 
08:10	37.3	37.3	37.3	72	29.1	0	1	225	0.00	29.964 
08:15	37.3	37.3	37.3	72	29.1	0	1	225	0.00	29.963 
08:20	37.3	37.3	37.3	72	29.1	0	1	225	0.00	29.963 
08:25	37.2	37.2	37.2	72	29.0	0	1	225	0.00	29.963 
08:30	37.2	37.2	37.2	72	29.0	0	1	225	0.00	29.966 
08:35	37.2	37.2	37.2	72	29.0	0	1	225	0.00	29.966 
08:40	37.3	37.3	37.3	72	29.1	0	1	225	0.00	29.966 
08:45	37.6	37.6	37.6	72	29.4	0	2	225	0.00	29.974 
08:50	37.9	37.9	37.9	72	29.7	0	2	225	0.00	29.974 
08:55	38.3	38.3	38.3	71	29.7	0	2	225	0.00	29.974 
09:00	38.5	38.5	38.5	71	29.9	0	2	225	0.00	29.978 
09:05	38.8	38.8	38.8	70	29.9	0	3	225	0.00	29.978 
09:10	39.2	39.2	39.2	70	30.3	0	2	225	0.00	29.978 
09:15	39.3	39.3	39.3	68	29.6	1	3	248	0.00	29.984 
09:20	39.6	39.6	39.6	68	29.9	0	2	248	0.00	29.984 
09:25	39.8	39.8	39.8	68	30.1	0	3	315	0.00	29.984 
09:30	40.1	40.1	40.1	67	30.0	1	5	292	0.00	29.983 
09:35	40.2	40.2	40.2	67	30.1	1	4	292	0.00	29.983 
09:40	40.8	40.8	40.8	66	30.3	1	4	248	0.00	29.983 
09:45	41.3	41.3	41.3	65	30.4	1	4	248	0.00	29.986 
09:50	41.8	41.8	41.8	65	30.9	1	5	248	0.00	29.986 
09:55	42.1	42.1	42.1	64	30.8	1	4	248	0.00	29.986 
10:00	42.1	42.1	42.1	62	30.0	3	6	248	0.00	29.990 
10:05	42.1	42.1	42.1	62	30.0	1	4	248	0.00	29.990 
10:10	41.9	41.9	41.9	62	29.8	1	3	248	0.00	29.990 
10:15	41.9	41.9	41.9	62	29.8	1	5	225	0.00	29.988 
10:20	42.1	42.1	42.1	62	30.0	1	4	270	0.00	29.988 
10:25	42.2	42.2	42.2	62	30.1	1	5	248	0.00	29.988 
10:30	42.3	42.3	42.3	62	30.2	2	6	248	0.00	29.990 
10:35	42.5	42.5	42.5	61	30.0	2	6	248	0.00	29.990 
10:40	42.6	42.6	42.6	61	30.1	2	5	248	0.00	29.990 
10:45	42.9	42.9	42.9	61	30.4	2	5	248	0.00	30.005 
10:50	42.9	42.9	42.9	60	30.0	2	6	225	0.00	30.005 
10:55	42.8	42.8	42.8	60	29.9	3	6	248	0.00	30.005 
11:00	42.9	42.9	42.9	61	30.4	1	9	248	0.00	30.019 
11:05	42.9	42.9	42.9	61	30.4	2	9	248	0.00	30.019 
11:10	43.1	43.1	43.1	61	30.6	1	5	225	0.00	30.019 
11:15	43.1	43.1	43.1	61	30.6	2	7	248	0.00	30.010 
11:20	43.2	43.2	43.2	61	30.7	1	5	248	0.00	30.010 
11:25	43.5	43.5	43.5	61	31.0	2	5	248	0.00	30.010 
11:30	43.8	43.8	43.8	60	30.8	2	6	248	0.00	30.008 
11:35	44.3	44.3	44.3	60	31.3	2	5	248	0.00	30.008 
11:40	44.8	44.8	44.8	58	30.9	2	7	248	0.00	30.008 
11:45	45.2	45.2	45.2	58	31.3	2	6	248	0.00	30.002 
11:50	45.7	45.7	45.7	57	31.3	1	4	248	0.00	30.002 
11:55	46.2	46.2	46.2	54	30.5	3	9	248	0.00	30.002 
12:00	46.8	46.8	46.8	52	30.1	2	9	248	0.00	29.971 
12:05	47.4	47.4	47.4	50	29.7	3	7	248	0.00	29.971 
12:10	47.9	47.9	47.9	50	30.2	2	6	248	0.00	29.971 
12:15	48.5	48.5	48.5	50	30.7	2	10	248	0.00	29.958 
12:20	48.9	48.9	48.9	48	30.1	3	6	270	0.00	29.958 
12:25	49.2	49.2	49.2	49	30.9	2	6	248	0.00	29.958 
12:30	49.6	49.6	49.6	50	31.7	2	6	248	0.00	29.955 
12:35	50.1	50.1	50.1	49	31.7	1	4	248	0.00	29.955 
12:40	50.4	50.4	50.4	48	31.5	1	4	248	0.00	29.955 
12:45	50.7	50.7	50.7	48	31.7	1	3	248	0.00	29.949 
12:50	50.8	50.8	50.8	47	31.3	2	5	270	0.00	29.949 
12:55	51.0	51.0	51.0	47	31.5	1	4	248	0.00	29.949 
13:00	51.1	51.1	51.1	48	32.1	1	5	270	0.00	29.938 
13:05	51.4	51.4	51.4	46	31.3	2	5	248	0.00	29.938 
13:10	51.6	51.6	51.6	47	32.0	2	4	270	0.00	29.938 
13:15	51.7	51.7	51.7	45	31.1	1	4	248	0.00	29.935 
13:20	51.7	51.7	51.7	46	31.6	1	3	248	0.00	29.935 
13:25	52.2	52.2	52.2	46	32.1	1	3	225	0.00	29.935 
13:30	52.3	52.3	52.3	45	31.6	0	3	225	0.00	29.923 
13:35	52.5	52.5	52.5	45	31.8	1	3	225	0.00	29.923 
13:40	52.6	52.6	52.6	45	31.9	1	4	248	0.00	29.923 
13:45	52.6	52.6	52.6	45	31.9	1	5	248	0.00	29.921 
13:50	52.6	52.6	52.6	46	32.4	1	3	248	0.00	29.921 
13:55	52.6	52.6	52.6	45	31.9	1	3	248	0.00	29.921 
14:00	52.8	52.8	52.8	47	33.1	1	2	225	0.00	29.926 
14:05	52.6	52.6	52.6	46	32.4	1	3	292	0.00	29.926 
14:10	52.5	52.5	52.5	46	32.3	1	4	270	0.00	29.926 
14:15	52.6	52.6	52.6	46	32.4	1	4	248	0.00	29.935 
14:20	52.8	52.8	52.8	47	33.1	1	3	270	0.00	29.935 
14:25	52.8	52.8	52.8	45	32.1	1	3	270	0.00	29.935 
14:30	52.8	52.8	52.8	46	32.6	1	3	225	0.00	29.938 
14:35	52.8	52.8	52.8	46	32.6	1	4	225	0.00	29.938 
14:40	52.8	52.8	52.8	45	32.1	1	4	225	0.00	29.938 
14:45	52.8	52.8	52.8	45	32.1	1	4	248	0.00	29.940 
14:50	52.6	52.6	52.6	46	32.4	0	3	90	0.00	29.940 
14:55	52.5	52.5	52.5	46	32.3	1	4	68	0.00	29.940 
15:00	52.6	52.6	52.6	45	31.9	1	5	248	0.00	29.938 
15:05	52.8	52.8	52.8	46	32.6	0	2	248	0.00	29.938 
15:10	53.2	53.2	53.2	45	32.4	1	6	248	0.00	29.938 
15:15	53.2	53.2	53.2	43	31.3	1	6	248	0.00	29.926 
15:20	52.9	52.9	52.9	44	31.6	0	4	248	0.00	29.926 
15:25	52.8	52.8	52.8	44	31.5	1	4	248	0.00	29.926 
15:30	52.6	52.6	52.6	45	31.9	0	2	248	0.00	29.921 
15:35	52.5	52.5	52.5	45	31.8	1	3	248	0.00	29.921 
15:40	52.6	52.6	52.6	46	32.4	1	3	248	0.00	29.921 
15:45	52.8	52.8	52.8	46	32.6	1	3	248	0.00	29.923 
15:50	52.8	52.8	52.8	45	32.1	0	1	248	0.00	29.923 
15:55	52.6	52.6	52.6	45	31.9	0	1	225	0.00	29.923 
16:00	52.3	52.3	52.3	46	32.1	0	3	202	0.00	29.928 
16:05	52.0	52.0	52.0	46	31.9	0	2	202	0.00	29.928 
16:10	51.9	51.9	51.9	46	31.8	0	2	202	0.00	29.928 
16:15	51.7	51.7	51.7	46	31.6	0	2	202	0.00	29.926 
16:20	51.4	51.4	51.4	47	31.9	0	1	202	0.00	29.926 
16:25	51.0	51.0	51.0	48	32.0	0	1	202	0.00	29.926 
16:30	50.7	50.7	50.7	49	32.2	0	0	---	0.00	29.933 
16:35	50.5	50.5	50.5	49	32.1	0	2	202	0.00	29.933 
16:40	50.4	50.4	50.4	49	32.0	0	1	202	0.00	29.933 
16:45	50.4	50.4	50.4	49	32.0	0	1	202	0.00	29.938 
16:50	50.2	50.2	50.2	49	31.8	0	1	202	0.00	29.938 
16:55	50.1	50.1	50.1	49	31.7	0	0	---	0.00	29.938 
17:00	49.8	49.8	49.8	49	31.4	0	2	90	0.00	29.940 
17:05	49.6	49.6	49.6	49	31.2	0	1	90	0.00	29.940 
17:10	49.5	49.5	49.5	49	31.1	0	2	90	0.00	29.940 
17:15	49.4	49.4	49.4	49	31.0	0	2	90	0.00	29.937 
17:20	49.2	49.2	49.2	50	31.4	0	1	90	0.00	29.937 
17:25	48.9	48.9	48.9	50	31.1	0	1	90	0.00	29.937 
17:30	48.6	48.6	48.6	51	31.3	0	0	---	0.00	29.941 
17:35	48.2	48.2	48.2	52	31.4	0	0	---	0.00	29.941 
17:40	47.6	47.6	47.6	52	30.9	0	0	---	0.00	29.941 
17:45	47.0	47.0	47.0	54	31.2	0	0	---	0.00	29.946 
17:50	46.4	46.4	46.4	55	31.1	0	0	---	0.00	29.946 
17:55	45.7	45.7	45.7	57	31.3	0	0	---	0.00	29.946 
18:00	45.1	45.1	45.1	58	31.2	0	0	---	0.00	29.953 
18:05	44.5	44.5	44.5	58	30.7	0	0	---	0.00	29.953 
18:10	44.1	44.1	44.1	59	30.7	0	0	---	0.00	29.953 
18:15	43.6	43.6	43.6	61	31.0	0	0	---	0.00	29.956 
18:20	43.5	43.5	43.5	61	31.0	0	0	---	0.00	29.956 
18:25	43.2	43.2	43.2	61	30.7	0	0	---	0.00	29.956 
18:30	43.1	43.1	43.1	62	31.0	0	0	---	0.00	29.959 
18:35	42.8	42.8	42.8	62	30.7	0	0	---	0.00	29.959 
18:40	42.3	42.3	42.3	63	30.6	0	0	---	0.00	29.959 
18:45	42.1	42.1	42.1	64	30.8	0	0	---	0.00	29.961 
18:50	41.6	41.6	41.6	65	30.7	0	0	---	0.00	29.961 
18:55	41.2	41.2	41.2	66	30.7	0	1	90	0.00	29.961 
19:00	40.8	40.8	40.8	67	30.7	0	0	---	0.00	29.962 
19:05	40.5	40.5	40.5	68	30.8	0	0	---	0.00	29.962 
19:10	40.2	40.2	40.2	68	30.5	0	0	---	0.00	29.962 
19:15	39.9	39.9	39.9	69	30.6	0	0	---	0.00	29.964 
19:20	39.8	39.8	39.8	69	30.5	0	0	---	0.00	29.964 
19:25	39.6	39.6	39.6	70	30.6	0	0	---	0.00	29.964 
19:30	39.6	39.6	39.6	69	30.3	0	0	---	0.00	29.966 
19:35	39.5	39.5	39.5	70	30.5	0	0	---	0.00	29.966 
19:40	39.3	39.3	39.3	70	30.3	0	0	---	0.00	29.966 
19:45	39.2	39.2	39.2	70	30.3	0	0	---	0.00	29.964 
19:50	39.1	39.1	39.1	71	30.5	0	0	---	0.00	29.964 
19:55	38.9	38.9	38.9	71	30.3	0	0	---	0.00	29.964 
20:00	38.6	38.6	38.6	71	30.0	0	0	---	0.00	29.962 
20:05	38.3	38.3	38.3	72	30.1	0	0	---	0.00	29.962 
20:10	38.0	38.0	38.0	71	29.4	0	0	---	0.00	29.962 
20:15	37.8	37.8	37.8	72	29.6	0	0	---	0.00	29.952 
20:20	37.3	37.3	37.3	73	29.5	0	0	---	0.00	29.952 
20:25	37.0	37.0	37.0	73	29.2	0	0	---	0.00	29.952 
20:30	36.8	36.8	36.8	74	29.3	0	0	---	0.00	29.951 
20:35	36.5	36.5	36.5	75	29.3	0	0	---	0.00	29.951 
20:40	36.2	36.2	36.2	76	29.4	0	0	---	0.00	29.951 
20:45	35.9	35.9	35.9	76	29.1	0	0	---	0.00	29.951 
20:50	35.8	35.8	35.8	77	29.3	0	0	---	0.00	29.951 
20:55	35.6	35.6	35.6	78	29.4	0	0	---	0.00	29.951 
21:00	35.5	35.5	35.5	79	29.6	0	0	---	0.00	29.950 
21:05	35.3	35.3	35.3	80	29.8	0	0	---	0.00	29.950 
21:10	35.0	35.0	35.0	81	29.8	0	0	---	0.00	29.950 
21:15	34.7	34.7	34.7	81	29.5	0	0	---	0.00	29.944 
21:20	34.4	34.4	34.4	82	29.5	0	0	---	0.00	29.944 
21:25	34.1	34.1	34.1	81	28.9	0	0	---	0.00	29.944 
21:30	33.8	33.8	33.8	82	28.9	0	0	---	0.00	29.943 
21:35	33.5	33.5	33.5	82	28.6	0	0	---	0.00	29.943 
21:40	33.4	33.4	33.4	83	28.8	0	0	---	0.00	29.943 
21:45	33.4	33.4	33.4	84	29.1	0	0	---	0.00	29.940 
21:50	33.2	33.2	33.2	84	28.9	0	0	---	0.00	29.940 
21:55	33.2	33.2	33.2	85	29.2	0	0	---	0.00	29.940 
22:00	33.1	33.1	33.1	85	29.1	0	0	---	0.00	29.946 
22:05	32.9	32.9	32.9	85	28.9	0	0	---	0.00	29.946 
22:10	32.8	32.8	32.8	85	28.8	0	0	---	0.00	29.946 
22:15	32.5	32.5	32.5	86	28.8	0	0	---	0.00	29.945 
22:20	32.4	32.4	32.4	86	28.7	0	0	---	0.00	29.945 
22:25	32.4	32.4	32.4	87	29.0	0	0	---	0.00	29.945 
22:30	32.2	32.2	32.2	87	28.8	0	0	---	0.00	29.943 
22:35	32.2	32.2	32.2	87	28.8	0	0	---	0.00	29.943 
22:40	32.2	32.2	32.2	88	29.1	0	0	---	0.00	29.943 
22:45	32.1	32.1	32.1	88	29.0	0	0	---	0.00	29.947 
22:50	31.9	31.9	31.9	88	28.8	0	0	---	0.00	29.947 
22:55	31.9	31.9	31.9	88	28.8	0	0	---	0.00	29.947 
23:00	32.1	32.1	32.1	89	29.2	0	0	---	0.00	29.948 
23:05	32.4	32.4	32.4	89	29.5	0	0	---	0.00	29.948 
23:10	32.5	32.5	32.5	89	29.6	0	0	---	0.00	29.948 
23:15	32.4	32.4	32.4	88	29.3	0	0	---	0.00	29.938 
23:20	32.4	32.4	32.4	88	29.3	0	0	---	0.00	29.938 
23:25	32.4	32.4	32.4	89	29.5	0	0	---	0.00	29.938 
23:30	32.4	32.4	32.4	89	29.5	0	0	---	0.00	29.940 
23:35	32.4	32.4	32.4	88	29.3	0	0	---	0.00	29.940 
23:40	32.2	32.2	32.2	88	29.1	0	0	---	0.00	29.940 
23:45	32.1	32.1	32.1	88	29.0	0	0	---	0.00	29.935 
23:50	31.8	31.8	31.8	88	28.7	0	0	---	0.00	29.935 
23:55	31.6	31.6	31.6	88	28.5	0	0	---	0.00	29.935 

CoCoRaHS
IN-AL-39
A2 Web Hosting
Creative Commons License
GoDaddy
search engine by freefind advanced

loaded 2018-11-20 08:50:04 • last modified 2010-11-18 10:43:29
Privacy PolicyDisclaimer
• wx.awcolley.com is powered by PmWiki v.2002016 •
• all content (unless otherwise noted) © 2018 A W Colley